createdAt,value
2023-07-29T00:00:51.187Z,99.99
2023-07-29T00:01:51.146Z,99.99
2023-07-29T00:02:51.069Z,99.99
2023-07-29T00:03:51.018Z,99.99
2023-07-29T00:04:50.881Z,99.99
2023-07-29T00:05:50.809Z,99.99
2023-07-29T00:06:50.721Z,99.99
2023-07-29T00:07:50.653Z,99.99
2023-07-29T00:08:50.574Z,99.99
2023-07-29T00:09:50.521Z,99.99
2023-07-29T00:10:50.440Z,99.99
2023-07-29T00:11:50.358Z,99.99
2023-07-29T00:12:50.270Z,99.99
2023-07-29T00:13:50.193Z,99.99
2023-07-29T00:14:50.116Z,99.99
2023-07-29T00:15:50.043Z,99.99
2023-07-29T00:16:50.005Z,99.99
2023-07-29T00:17:49.922Z,99.99
2023-07-29T00:18:49.819Z,99.99
2023-07-29T00:19:49.769Z,99.99
2023-07-29T00:20:49.658Z,99.99
2023-07-29T00:21:49.586Z,99.99
2023-07-29T00:22:49.500Z,99.99
2023-07-29T00:23:49.432Z,99.99
2023-07-29T00:24:49.354Z,99.99
2023-07-29T00:25:49.297Z,99.99
2023-07-29T00:26:49.198Z,99.99
2023-07-29T00:27:49.137Z,99.99
2023-07-29T00:28:49.047Z,99.99
2023-07-29T00:29:48.990Z,99.99
2023-07-29T00:30:48.994Z,99.99
2023-07-29T00:31:48.934Z,99.99
2023-07-29T00:32:48.811Z,99.99
2023-07-29T00:33:48.679Z,99.99
2023-07-29T00:34:48.593Z,99.99
2023-07-29T00:35:48.512Z,99.99
2023-07-29T00:36:48.440Z,99.99
2023-07-29T00:37:48.359Z,99.99
2023-07-29T00:38:48.293Z,99.99
2023-07-29T00:39:48.208Z,99.99
2023-07-29T00:40:48.133Z,99.99
2023-07-29T00:41:48.068Z,99.99
2023-07-29T00:42:47.985Z,99.99
2023-07-29T00:43:47.900Z,99.99
2023-07-29T00:44:47.831Z,99.99
2023-07-29T00:45:47.758Z,99.99
2023-07-29T00:46:47.708Z,99.99
2023-07-29T00:47:47.676Z,99.99
2023-07-29T00:48:47.611Z,99.99
2023-07-29T00:49:47.456Z,99.99
2023-07-29T00:50:47.382Z,99.99
2023-07-29T00:51:47.299Z,99.99
2023-07-29T00:52:47.209Z,99.99
2023-07-29T00:53:47.136Z,99.99
2023-07-29T00:54:47.065Z,99.99
2023-07-29T00:55:46.980Z,99.99
2023-07-29T00:56:46.912Z,99.99
2023-07-29T00:57:46.837Z,99.99
2023-07-29T00:58:46.758Z,99.99
2023-07-29T00:59:46.680Z,99.99
2023-07-29T01:00:46.612Z,99.99
2023-07-29T01:01:46.566Z,99.99
2023-07-29T01:02:46.537Z,99.99
2023-07-29T01:03:46.551Z,99.99
2023-07-29T01:04:46.300Z,99.99
2023-07-29T01:05:46.222Z,99.99
2023-07-29T01:06:46.142Z,99.99
2023-07-29T01:07:46.072Z,99.99
2023-07-29T01:08:45.989Z,99.99
2023-07-29T01:09:45.909Z,99.99
2023-07-29T01:10:45.850Z,99.99
2023-07-29T01:11:45.763Z,99.99
2023-07-29T01:12:45.683Z,99.99
2023-07-29T01:13:45.612Z,99.99
2023-07-29T01:14:45.544Z,99.99
2023-07-29T01:15:45.492Z,99.99
2023-07-29T01:16:45.385Z,99.99
2023-07-29T01:17:45.350Z,99.99
2023-07-29T01:18:45.239Z,99.99
2023-07-29T01:19:45.151Z,99.99
2023-07-29T01:20:45.071Z,99.99
2023-07-29T01:21:44.996Z,99.99
2023-07-29T01:22:44.925Z,99.99
2023-07-29T01:23:44.839Z,99.99
2023-07-29T01:24:44.774Z,99.99
2023-07-29T01:25:44.686Z,99.99
2023-07-29T01:26:44.614Z,99.99
2023-07-29T01:27:44.537Z,99.99
2023-07-29T01:28:44.456Z,99.99
2023-07-29T01:29:44.382Z,99.99
2023-07-29T01:30:44.312Z,99.99
2023-07-29T01:31:44.248Z,99.99
2023-07-29T01:32:44.183Z,99.99
2023-07-29T01:33:44.084Z,99.99
2023-07-29T01:34:44.003Z,99.99
2023-07-29T01:35:43.920Z,99.99
2023-07-29T01:36:46.077Z,99.99
2023-07-29T01:37:43.777Z,99.99
2023-07-29T01:38:43.694Z,99.99
2023-07-29T01:39:43.617Z,99.99
2023-07-29T01:40:43.548Z,99.99
2023-07-29T01:41:43.462Z,99.99
2023-07-29T01:42:43.389Z,99.99
2023-07-29T01:43:43.314Z,99.99
2023-07-29T01:44:43.250Z,99.99
2023-07-29T01:45:43.189Z,99.99
2023-07-29T01:46:43.106Z,99.99
2023-07-29T01:47:43.172Z,99.99
2023-07-29T01:48:42.993Z,99.99
2023-07-29T01:49:42.865Z,99.99
2023-07-29T01:50:42.784Z,99.99
2023-07-29T01:51:42.695Z,99.99
2023-07-29T01:52:42.624Z,99.99
2023-07-29T01:53:42.544Z,99.99
2023-07-29T01:54:42.467Z,99.99
2023-07-29T01:55:42.438Z,99.99
2023-07-29T01:56:42.307Z,99.99
2023-07-29T01:57:42.233Z,99.99
2023-07-29T01:58:42.163Z,99.99
2023-07-29T01:59:42.073Z,99.99
2023-07-29T02:00:42.017Z,99.99
2023-07-29T02:01:41.946Z,99.99
2023-07-29T02:02:41.959Z,99.99
2023-07-29T02:03:41.774Z,99.99
2023-07-29T02:04:41.763Z,99.99
2023-07-29T02:05:41.632Z,99.99
2023-07-29T02:06:41.543Z,99.99
2023-07-29T02:07:41.463Z,99.99
2023-07-29T02:08:41.393Z,99.99
2023-07-29T02:09:41.310Z,99.99
2023-07-29T02:10:41.233Z,99.99
2023-07-29T02:11:41.170Z,99.99
2023-07-29T02:12:41.085Z,99.99
2023-07-29T02:13:41.006Z,99.99
2023-07-29T02:14:40.934Z,99.99
2023-07-29T02:15:40.843Z,99.99
2023-07-29T02:16:41.241Z,99.99
2023-07-29T02:17:40.735Z,99.99
2023-07-29T02:18:40.628Z,99.99
2023-07-29T02:19:40.542Z,99.99
2023-07-29T02:20:40.473Z,99.99
2023-07-29T02:21:40.393Z,99.99
2023-07-29T02:22:40.316Z,99.99
2023-07-29T02:23:40.240Z,99.99
2023-07-29T02:24:40.175Z,99.99
2023-07-29T02:25:40.080Z,99.99
2023-07-29T02:26:40.011Z,99.99
2023-07-29T02:27:39.931Z,99.99
2023-07-29T02:28:39.862Z,99.99
2023-07-29T02:29:39.780Z,99.99
2023-07-29T02:30:39.704Z,99.99
2023-07-29T02:31:39.621Z,99.99
2023-07-29T02:32:39.613Z,99.99
2023-07-29T02:33:39.531Z,99.99
2023-07-29T02:34:39.391Z,99.99
2023-07-29T02:35:39.325Z,99.99
2023-07-29T02:36:39.375Z,99.99
2023-07-29T02:37:39.216Z,99.99
2023-07-29T02:38:39.087Z,99.99
2023-07-29T02:39:39.009Z,99.99
2023-07-29T02:40:38.929Z,99.99
2023-07-29T02:41:38.851Z,99.99
2023-07-29T02:42:38.796Z,99.99
2023-07-29T02:43:38.693Z,99.99
2023-07-29T02:44:38.620Z,99.99
2023-07-29T02:45:38.539Z,99.99
2023-07-29T02:46:38.725Z,99.99
2023-07-29T02:47:38.422Z,99.99
2023-07-29T02:48:38.327Z,99.99
2023-07-29T02:49:38.232Z,99.99
2023-07-29T02:50:38.163Z,99.99
2023-07-29T02:51:38.101Z,99.99
2023-07-29T02:52:38.014Z,99.99
2023-07-29T02:53:37.935Z,99.99
2023-07-29T02:54:37.854Z,99.99
2023-07-29T02:55:37.774Z,99.99
2023-07-29T02:56:38.035Z,99.99
2023-07-29T02:57:37.617Z,99.99
2023-07-29T02:58:37.552Z,99.99
2023-07-29T02:59:37.479Z,99.99
2023-07-29T03:00:37.409Z,99.99
2023-07-29T03:01:37.316Z,99.99
2023-07-29T03:02:37.299Z,99.99
2023-07-29T03:03:37.380Z,99.99
2023-07-29T03:04:37.087Z,99.99
2023-07-29T03:05:37.006Z,99.99
2023-07-29T03:06:37.101Z,99.99
2023-07-29T03:07:36.844Z,99.99
2023-07-29T03:08:36.788Z,99.99
2023-07-29T03:09:36.692Z,99.99
2023-07-29T03:10:36.621Z,99.99
2023-07-29T03:11:36.540Z,99.99
2023-07-29T03:12:36.467Z,99.99
2023-07-29T03:13:36.387Z,99.99
2023-07-29T03:14:36.317Z,99.99
2023-07-29T03:15:36.261Z,99.99
2023-07-29T03:16:36.475Z,99.99
2023-07-29T03:17:36.108Z,99.99
2023-07-29T03:18:36.003Z,99.99
2023-07-29T03:19:35.933Z,99.99
2023-07-29T03:20:35.842Z,99.99
2023-07-29T03:21:35.775Z,99.99
2023-07-29T03:22:35.693Z,99.99
2023-07-29T03:23:35.631Z,99.99
2023-07-29T03:24:35.540Z,99.99
2023-07-29T03:25:35.458Z,99.99
2023-07-29T03:26:35.717Z,99.99
2023-07-29T03:27:35.302Z,99.99
2023-07-29T03:28:35.232Z,99.99
2023-07-29T03:29:35.150Z,99.99
2023-07-29T03:30:35.121Z,99.99
2023-07-29T03:31:34.996Z,99.99
2023-07-29T03:32:35.018Z,99.99
2023-07-29T03:33:34.838Z,99.99
2023-07-29T03:34:34.759Z,99.99
2023-07-29T03:35:34.690Z,99.99
2023-07-29T03:36:35.054Z,99.99
2023-07-29T03:37:34.531Z,99.99
2023-07-29T03:38:34.456Z,99.99
2023-07-29T03:39:34.377Z,99.99
2023-07-29T03:40:34.301Z,99.99
2023-07-29T03:41:34.238Z,99.99
2023-07-29T03:42:34.147Z,99.99
2023-07-29T03:43:34.065Z,99.99
2023-07-29T03:44:33.994Z,99.99
2023-07-29T03:45:33.912Z,99.99
2023-07-29T03:46:33.954Z,99.99
2023-07-29T03:47:33.765Z,99.99
2023-07-29T03:48:33.681Z,99.99
2023-07-29T03:49:33.610Z,99.99
2023-07-29T03:50:33.520Z,99.99
2023-07-29T03:51:33.450Z,99.99
2023-07-29T03:52:33.373Z,99.99
2023-07-29T03:53:33.296Z,99.99
2023-07-29T03:54:33.216Z,99.99
2023-07-29T03:55:33.158Z,99.99
2023-07-29T03:56:33.062Z,99.99
2023-07-29T03:57:32.995Z,99.99
2023-07-29T03:58:32.913Z,99.99
2023-07-29T03:59:32.827Z,99.99
2023-07-29T04:00:32.754Z,99.99
2023-07-29T04:01:32.783Z,99.99
2023-07-29T04:02:32.631Z,99.99
2023-07-29T04:03:32.540Z,99.99
2023-07-29T04:04:32.564Z,99.99
2023-07-29T04:05:32.362Z,99.99
2023-07-29T04:06:32.326Z,99.99
2023-07-29T04:07:32.212Z,99.99
2023-07-29T04:08:32.131Z,99.99
2023-07-29T04:09:32.050Z,99.99
2023-07-29T04:10:31.980Z,99.99
2023-07-29T04:11:31.900Z,99.99
2023-07-29T04:12:31.828Z,99.99
2023-07-29T04:13:31.758Z,99.99
2023-07-29T04:14:31.666Z,99.99
2023-07-29T04:15:31.615Z,99.99
2023-07-29T04:16:31.571Z,99.99
2023-07-29T04:17:31.456Z,99.99
2023-07-29T04:18:31.376Z,99.99
2023-07-29T04:19:31.284Z,99.99
2023-07-29T04:20:31.221Z,99.99
2023-07-29T04:21:31.133Z,99.99
2023-07-29T04:22:31.054Z,99.99
2023-07-29T04:23:30.970Z,99.99
2023-07-29T04:24:30.904Z,99.99
2023-07-29T04:25:30.833Z,99.99
2023-07-29T04:26:30.741Z,99.99
2023-07-29T04:27:30.664Z,99.99
2023-07-29T04:28:30.621Z,99.99
2023-07-29T04:29:30.509Z,99.99
2023-07-29T04:30:30.433Z,99.99
2023-07-29T04:31:30.404Z,99.99
2023-07-29T04:32:30.322Z,99.99
2023-07-29T04:33:30.196Z,99.99
2023-07-29T04:34:30.126Z,99.99
2023-07-29T04:35:30.055Z,99.99
2023-07-29T04:36:29.996Z,99.99
2023-07-29T04:37:29.895Z,99.99
2023-07-29T04:38:29.807Z,99.99
2023-07-29T04:39:29.733Z,99.99
2023-07-29T04:40:29.660Z,99.99
2023-07-29T04:41:29.590Z,99.99
2023-07-29T04:42:29.510Z,99.99
2023-07-29T04:43:29.432Z,99.99
2023-07-29T04:44:29.350Z,99.99
2023-07-29T04:45:29.304Z,99.99
2023-07-29T04:46:29.198Z,99.99
2023-07-29T04:47:29.150Z,99.99
2023-07-29T04:48:29.048Z,99.99
2023-07-29T04:49:28.976Z,99.99
2023-07-29T04:50:28.892Z,99.99
2023-07-29T04:51:28.812Z,99.99
2023-07-29T04:52:28.735Z,99.99
2023-07-29T04:53:28.674Z,99.99
2023-07-29T04:54:28.577Z,99.99
2023-07-29T04:55:28.498Z,99.99
2023-07-29T04:56:28.423Z,99.99
2023-07-29T04:57:28.352Z,99.99
2023-07-29T04:58:28.272Z,99.99
2023-07-29T04:59:28.202Z,99.99
2023-07-29T05:00:28.128Z,99.99
2023-07-29T05:01:28.074Z,99.99
2023-07-29T05:02:27.989Z,99.99
2023-07-29T05:03:27.888Z,99.99
2023-07-29T05:04:27.830Z,99.99
2023-07-29T05:05:27.732Z,99.99
2023-07-29T05:06:27.654Z,99.99
2023-07-29T05:07:27.586Z,99.99
2023-07-29T05:08:27.505Z,99.99
2023-07-29T05:09:29.014Z,99.99
2023-07-29T05:10:27.342Z,99.99
2023-07-29T05:11:27.269Z,99.99
2023-07-29T05:12:27.195Z,99.99
2023-07-29T05:13:27.126Z,99.99
2023-07-29T05:14:27.033Z,99.99
2023-07-29T05:15:26.992Z,99.99
2023-07-29T05:16:26.887Z,99.99
2023-07-29T05:17:26.843Z,99.99
2023-07-29T05:18:26.726Z,99.99
2023-07-29T05:19:26.655Z,99.99
2023-07-29T05:20:26.572Z,99.99
2023-07-29T05:21:26.505Z,99.99
2023-07-29T05:22:26.428Z,99.99
2023-07-29T05:23:26.351Z,99.99
2023-07-29T05:24:26.267Z,99.99
2023-07-29T05:25:26.189Z,99.99
2023-07-29T05:26:26.117Z,99.99
2023-07-29T05:27:26.037Z,99.99
2023-07-29T05:28:26.037Z,99.99
2023-07-29T05:29:25.878Z,99.99
2023-07-29T05:30:25.802Z,99.99
2023-07-29T05:31:25.730Z,99.99
2023-07-29T05:32:25.650Z,99.99
2023-07-29T05:33:25.664Z,99.99
2023-07-29T05:34:25.499Z,99.99
2023-07-29T05:35:25.421Z,99.99
2023-07-29T05:36:25.343Z,99.99
2023-07-29T05:37:25.318Z,99.99
2023-07-29T05:38:25.184Z,99.99
2023-07-29T05:39:25.116Z,99.99
2023-07-29T05:40:25.029Z,99.99
2023-07-29T05:41:24.965Z,99.99
2023-07-29T05:42:24.882Z,99.99
2023-07-29T05:43:24.815Z,99.99
2023-07-29T05:44:24.735Z,99.99
2023-07-29T05:45:24.652Z,99.99
2023-07-29T05:46:24.603Z,99.99
2023-07-29T05:47:24.656Z,99.99
2023-07-29T05:48:24.422Z,99.99
2023-07-29T05:49:24.350Z,99.99
2023-07-29T05:50:24.261Z,99.99
2023-07-29T05:51:24.199Z,99.99
2023-07-29T05:52:24.109Z,99.99
2023-07-29T05:53:24.038Z,99.99
2023-07-29T05:54:23.973Z,99.99
2023-07-29T05:55:23.887Z,99.99
2023-07-29T05:56:23.806Z,99.99
2023-07-29T05:57:23.744Z,99.99
2023-07-29T05:58:23.654Z,99.99
2023-07-29T05:59:23.574Z,99.99
2023-07-29T06:00:23.509Z,99.99
2023-07-29T06:01:23.453Z,99.99
2023-07-29T06:02:23.349Z,99.99
2023-07-29T06:03:23.310Z,99.99
2023-07-29T06:04:23.193Z,99.99
2023-07-29T06:05:23.128Z,99.99
2023-07-29T06:06:23.041Z,99.99
2023-07-29T06:07:22.967Z,99.99
2023-07-29T06:08:22.893Z,99.99
2023-07-29T06:09:22.818Z,99.99
2023-07-29T06:10:22.727Z,99.99
2023-07-29T06:11:22.654Z,99.99
2023-07-29T06:12:22.582Z,99.99
2023-07-29T06:13:22.500Z,99.99
2023-07-29T06:14:22.422Z,99.99
2023-07-29T06:15:22.418Z,99.99
2023-07-29T06:16:22.294Z,99.99
2023-07-29T06:17:22.248Z,99.99
2023-07-29T06:18:22.123Z,99.99
2023-07-29T06:19:22.059Z,99.99
2023-07-29T06:20:21.970Z,99.99
2023-07-29T06:21:21.898Z,99.99
2023-07-29T06:22:21.811Z,99.99
2023-07-29T06:23:21.732Z,99.99
2023-07-29T06:24:21.674Z,99.99
2023-07-29T06:25:21.641Z,99.99
2023-07-29T06:26:21.507Z,99.99
2023-07-29T06:27:21.432Z,99.99
2023-07-29T06:28:21.394Z,99.99
2023-07-29T06:29:21.287Z,99.99
2023-07-29T06:30:21.196Z,99.99
2023-07-29T06:31:21.200Z,99.99
2023-07-29T06:32:21.045Z,99.99
2023-07-29T06:33:20.971Z,99.99
2023-07-29T06:34:20.901Z,99.99
2023-07-29T06:35:20.823Z,99.99
2023-07-29T06:36:20.741Z,99.99
2023-07-29T06:37:20.668Z,99.99
2023-07-29T06:38:20.590Z,99.99
2023-07-29T06:39:20.513Z,99.99
2023-07-29T06:40:20.432Z,99.99
2023-07-29T06:41:20.780Z,99.99
2023-07-29T06:42:20.289Z,99.99
2023-07-29T06:43:20.214Z,99.99
2023-07-29T06:44:20.123Z,99.99
2023-07-29T06:45:20.081Z,99.99
2023-07-29T06:46:19.991Z,99.99
2023-07-29T06:47:19.918Z,99.99
2023-07-29T06:48:19.851Z,99.99
2023-07-29T06:49:19.748Z,99.99
2023-07-29T06:50:19.678Z,99.99
2023-07-29T06:51:19.596Z,99.99
2023-07-29T06:52:19.512Z,99.99
2023-07-29T06:53:19.441Z,99.99
2023-07-29T06:54:19.367Z,99.99
2023-07-29T06:55:19.284Z,99.99
2023-07-29T06:56:19.216Z,99.99
2023-07-29T06:57:19.132Z,99.99
2023-07-29T06:58:19.057Z,99.99
2023-07-29T06:59:18.980Z,99.99
2023-07-29T07:00:18.900Z,99.99
2023-07-29T07:01:18.910Z,99.99
2023-07-29T07:02:18.775Z,99.99
2023-07-29T07:03:18.754Z,99.99
2023-07-29T07:04:18.594Z,99.99
2023-07-29T07:05:18.524Z,99.99
2023-07-29T07:06:18.445Z,99.99
2023-07-29T07:07:18.368Z,99.99
2023-07-29T07:08:18.290Z,99.99
2023-07-29T07:09:18.220Z,99.99
2023-07-29T07:10:18.134Z,99.99
2023-07-29T07:11:18.066Z,99.99
2023-07-29T07:12:17.998Z,99.99
2023-07-29T07:13:17.924Z,99.99
2023-07-29T07:14:17.833Z,99.99
2023-07-29T07:15:17.751Z,99.99
2023-07-29T07:16:17.744Z,99.99
2023-07-29T07:17:17.606Z,99.99
2023-07-29T07:18:17.531Z,99.99
2023-07-29T07:19:17.456Z,99.99
2023-07-29T07:20:17.380Z,99.99
2023-07-29T07:21:17.298Z,99.99
2023-07-29T07:22:17.227Z,99.99
2023-07-29T07:23:17.158Z,99.99
2023-07-29T07:24:17.069Z,99.99
2023-07-29T07:25:17.021Z,99.99
2023-07-29T07:26:16.921Z,99.99
2023-07-29T07:27:16.851Z,99.99
2023-07-29T07:28:16.811Z,99.99
2023-07-29T07:29:16.692Z,99.99
2023-07-29T07:30:16.610Z,99.99
2023-07-29T07:31:19.461Z,99.99
2023-07-29T07:32:16.462Z,99.99
2023-07-29T07:33:16.384Z,99.99
2023-07-29T07:34:16.308Z,99.99
2023-07-29T07:35:16.234Z,99.99
2023-07-29T07:36:16.157Z,99.99
2023-07-29T07:37:16.079Z,99.99
2023-07-29T07:38:16.017Z,99.99
2023-07-29T07:39:15.933Z,99.99
2023-07-29T07:40:15.859Z,99.99
2023-07-29T07:41:15.791Z,99.99
2023-07-29T07:42:15.707Z,99.99
2023-07-29T07:43:15.623Z,99.99
2023-07-29T07:44:15.564Z,99.99
2023-07-29T07:45:15.478Z,99.99
2023-07-29T07:46:15.450Z,99.99
2023-07-29T07:47:15.314Z,99.99
2023-07-29T07:48:15.238Z,99.99
2023-07-29T07:49:15.170Z,99.99
2023-07-29T07:50:15.093Z,99.99
2023-07-29T07:51:15.032Z,99.99
2023-07-29T07:52:14.934Z,99.99
2023-07-29T07:53:14.872Z,99.99
2023-07-29T07:54:14.800Z,99.99
2023-07-29T07:55:14.714Z,99.99
2023-07-29T07:56:14.639Z,99.99
2023-07-29T07:57:14.578Z,99.99
2023-07-29T07:58:14.476Z,99.99
2023-07-29T07:59:16.809Z,99.99
2023-07-29T08:00:14.333Z,99.99
2023-07-29T08:01:14.290Z,99.99
2023-07-29T08:02:14.176Z,99.99
2023-07-29T08:03:14.260Z,99.99
2023-07-29T08:04:14.024Z,99.99
2023-07-29T08:05:13.959Z,99.99
2023-07-29T08:06:13.874Z,99.99
2023-07-29T08:07:13.792Z,99.99
2023-07-29T08:08:13.742Z,99.99
2023-07-29T08:09:13.655Z,99.99
2023-07-29T08:10:13.571Z,99.99
2023-07-29T08:11:13.492Z,99.99
2023-07-29T08:12:13.419Z,99.99
2023-07-29T08:13:13.348Z,99.99
2023-07-29T08:14:13.267Z,99.99
2023-07-29T08:15:13.198Z,99.99
2023-07-29T08:16:13.183Z,99.99
2023-07-29T08:17:13.050Z,99.99
2023-07-29T08:18:12.960Z,99.99
2023-07-29T08:19:12.886Z,99.99
2023-07-29T08:20:12.807Z,99.99
2023-07-29T08:21:12.732Z,99.99
2023-07-29T08:22:12.664Z,99.99
2023-07-29T08:23:12.587Z,99.99
2023-07-29T08:24:12.501Z,99.99
2023-07-29T08:25:12.447Z,99.99
2023-07-29T08:26:12.366Z,99.99
2023-07-29T08:27:12.285Z,99.99
2023-07-29T08:28:12.241Z,99.99
2023-07-29T08:29:12.135Z,99.99
2023-07-29T08:30:12.054Z,99.99
2023-07-29T08:31:12.003Z,99.99
2023-07-29T08:32:11.912Z,99.99
2023-07-29T08:33:11.866Z,99.99
2023-07-29T08:34:11.812Z,99.99
2023-07-29T08:35:11.682Z,99.99
2023-07-29T08:36:11.600Z,99.99
2023-07-29T08:37:11.517Z,99.99
2023-07-29T08:38:11.444Z,99.99
2023-07-29T08:39:11.418Z,99.99
2023-07-29T08:40:11.319Z,99.99
2023-07-29T08:41:11.236Z,99.99
2023-07-29T08:42:11.141Z,99.99
2023-07-29T08:43:11.070Z,99.99
2023-07-29T08:44:13.161Z,99.99
2023-07-29T08:45:10.921Z,99.99
2023-07-29T08:46:10.848Z,99.99
2023-07-29T08:47:10.812Z,99.99
2023-07-29T08:48:10.739Z,99.99
2023-07-29T08:49:10.613Z,99.99
2023-07-29T08:50:11.526Z,99.99
2023-07-29T08:51:10.475Z,99.99
2023-07-29T08:52:10.382Z,99.99
2023-07-29T08:53:10.306Z,99.99
2023-07-29T08:54:10.236Z,99.99
2023-07-29T08:55:10.157Z,99.99
2023-07-29T08:56:10.096Z,99.99
2023-07-29T08:57:10.006Z,99.99
2023-07-29T08:58:09.929Z,99.99
2023-07-29T08:59:09.867Z,99.99
2023-07-29T09:00:09.785Z,99.99
2023-07-29T09:01:09.763Z,99.99
2023-07-29T09:02:09.731Z,99.99
2023-07-29T09:03:09.628Z,99.99
2023-07-29T09:04:09.475Z,99.99
2023-07-29T09:05:09.410Z,99.99
2023-07-29T09:06:09.329Z,99.99
2023-07-29T09:07:09.252Z,99.99
2023-07-29T09:08:09.172Z,99.99
2023-07-29T09:09:09.104Z,99.99
2023-07-29T09:10:09.032Z,99.99
2023-07-29T09:11:08.942Z,99.99
2023-07-29T09:12:08.873Z,99.99
2023-07-29T09:13:08.800Z,99.99
2023-07-29T09:14:08.721Z,99.99
2023-07-29T09:15:08.639Z,99.99
2023-07-29T09:16:08.567Z,99.99
2023-07-29T09:17:08.550Z,99.99
2023-07-29T09:18:08.444Z,99.99
2023-07-29T09:19:08.344Z,99.99
2023-07-29T09:20:08.270Z,99.99
2023-07-29T09:21:08.204Z,99.99
2023-07-29T09:22:08.109Z,99.99
2023-07-29T09:23:08.033Z,99.99
2023-07-29T09:24:07.984Z,99.99
2023-07-29T09:25:07.883Z,99.99
2023-07-29T09:26:07.816Z,99.99
2023-07-29T09:27:07.734Z,99.99
2023-07-29T09:28:07.682Z,99.99
2023-07-29T09:29:07.586Z,99.99
2023-07-29T09:30:07.524Z,99.99
2023-07-29T09:31:07.452Z,99.99
2023-07-29T09:32:07.366Z,99.99
2023-07-29T09:33:07.322Z,99.99
2023-07-29T09:34:07.212Z,99.99
2023-07-29T09:35:07.129Z,99.99
2023-07-29T09:36:07.055Z,99.99
2023-07-29T09:37:07.000Z,99.99
2023-07-29T09:38:06.910Z,99.99
2023-07-29T09:39:06.828Z,99.99
2023-07-29T09:40:06.766Z,99.99
2023-07-29T09:41:06.675Z,99.99
2023-07-29T09:42:06.610Z,99.99
2023-07-29T09:43:06.526Z,99.99
2023-07-29T09:44:06.453Z,99.99
2023-07-29T09:45:06.385Z,99.99
2023-07-29T09:46:06.340Z,99.99
2023-07-29T09:47:06.228Z,99.99
2023-07-29T09:48:06.285Z,99.99
2023-07-29T09:49:06.090Z,99.99
2023-07-29T09:50:05.998Z,99.99
2023-07-29T09:51:05.922Z,99.99
2023-07-29T09:52:05.849Z,99.99
2023-07-29T09:53:05.763Z,99.99
2023-07-29T09:54:05.720Z,99.99
2023-07-29T09:55:05.623Z,99.99
2023-07-29T09:56:05.546Z,99.99
2023-07-29T09:57:05.472Z,99.99
2023-07-29T09:58:05.426Z,99.99
2023-07-29T09:59:06.002Z,99.99
2023-07-29T10:00:05.245Z,99.99
2023-07-29T10:01:05.170Z,99.99
2023-07-29T10:02:05.146Z,99.99
2023-07-29T10:03:05.048Z,99.99
2023-07-29T10:04:05.025Z,99.99
2023-07-29T10:05:04.863Z,99.99
2023-07-29T10:06:04.798Z,99.99
2023-07-29T10:07:04.720Z,99.99
2023-07-29T10:08:04.646Z,99.99
2023-07-29T10:09:04.564Z,99.99
2023-07-29T10:10:04.502Z,99.99
2023-07-29T10:11:04.414Z,99.99
2023-07-29T10:12:04.335Z,99.99
2023-07-29T10:13:04.266Z,99.99
2023-07-29T10:14:07.910Z,99.99
2023-07-29T10:15:04.108Z,99.99
2023-07-29T10:16:04.142Z,99.99
2023-07-29T10:17:03.962Z,99.99
2023-07-29T10:18:03.908Z,99.99
2023-07-29T10:19:03.873Z,99.99
2023-07-29T10:20:03.742Z,99.99
2023-07-29T10:21:03.667Z,99.99
2023-07-29T10:22:03.587Z,99.99
2023-07-29T10:23:03.509Z,99.99
2023-07-29T10:24:03.432Z,99.99
2023-07-29T10:25:03.372Z,99.99
2023-07-29T10:26:03.285Z,99.99
2023-07-29T10:27:03.211Z,99.99
2023-07-29T10:28:03.178Z,99.99
2023-07-29T10:29:03.081Z,99.99
2023-07-29T10:30:02.984Z,99.99
2023-07-29T10:31:02.916Z,99.99
2023-07-29T10:32:02.838Z,99.99
2023-07-29T10:33:02.841Z,99.99
2023-07-29T10:34:02.719Z,99.99
2023-07-29T10:35:02.610Z,99.99
2023-07-29T10:36:02.551Z,99.99
2023-07-29T10:37:02.464Z,99.99
2023-07-29T10:38:02.386Z,99.99
2023-07-29T10:39:02.310Z,99.99
2023-07-29T10:40:02.235Z,99.99
2023-07-29T10:41:02.245Z,99.99
2023-07-29T10:42:02.092Z,99.99
2023-07-29T10:43:02.000Z,99.99
2023-07-29T10:44:01.935Z,99.99
2023-07-29T10:45:01.856Z,99.99
2023-07-29T10:46:14.964Z,99.99
2023-07-29T10:47:01.753Z,99.99
2023-07-29T10:48:01.683Z,99.99
2023-07-29T10:49:01.560Z,99.99
2023-07-29T10:50:01.495Z,99.99
2023-07-29T10:51:01.415Z,99.99
2023-07-29T10:52:01.335Z,99.99
2023-07-29T10:53:01.273Z,99.99
2023-07-29T10:54:01.196Z,99.99
2023-07-29T10:55:01.174Z,99.99
2023-07-29T10:56:01.039Z,99.99
2023-07-29T10:57:00.976Z,99.99
2023-07-29T10:58:00.889Z,99.99
2023-07-29T10:59:00.809Z,99.99
2023-07-29T11:00:00.741Z,99.99
2023-07-29T11:01:00.668Z,99.99
2023-07-29T11:02:00.630Z,99.99
2023-07-29T11:03:00.550Z,99.99
2023-07-29T11:04:00.443Z,99.99
2023-07-29T11:05:00.446Z,99.99
2023-07-29T11:06:00.300Z,99.99
2023-07-29T11:07:00.225Z,99.99
2023-07-29T11:08:00.156Z,99.99
2023-07-29T11:09:00.078Z,99.16
2023-07-29T11:09:59.997Z,99.99
2023-07-29T11:10:59.935Z,99.99
2023-07-29T11:11:59.872Z,99.99
2023-07-29T11:12:59.780Z,99.99
2023-07-29T11:13:59.702Z,98.88
2023-07-29T11:14:59.634Z,99.26
2023-07-29T11:15:59.808Z,99.99
2023-07-29T11:16:59.488Z,99.99
2023-07-29T11:17:59.448Z,99.99
2023-07-29T11:18:59.346Z,99.99
2023-07-29T11:19:59.269Z,99.99
2023-07-29T11:20:59.192Z,99.99
2023-07-29T11:21:59.136Z,99.99
2023-07-29T11:22:59.045Z,99.69
2023-07-29T11:23:58.984Z,98.68
2023-07-29T11:24:58.902Z,96.60
2023-07-29T11:25:58.832Z,97.28
2023-07-29T11:26:58.754Z,97.47
2023-07-29T11:27:58.734Z,96.70
2023-07-29T11:28:58.607Z,96.51
2023-07-29T11:29:58.537Z,96.31
2023-07-29T11:30:58.492Z,95.54
2023-07-29T11:31:58.393Z,96.02
2023-07-29T11:32:58.350Z,97.28
2023-07-29T11:33:58.242Z,97.86
2023-07-29T11:34:58.174Z,96.02
2023-07-29T11:35:58.085Z,95.54
2023-07-29T11:36:58.013Z,95.68
2023-07-29T11:37:58.044Z,95.01
2023-07-29T11:38:57.874Z,94.82
2023-07-29T11:39:57.803Z,95.68
2023-07-29T11:40:57.736Z,95.68
2023-07-29T11:41:57.655Z,95.25
2023-07-29T11:42:57.576Z,95.54
2023-07-29T11:43:57.508Z,96.56
2023-07-29T11:44:57.433Z,96.89
2023-07-29T11:45:57.368Z,97.57
2023-07-29T11:46:57.303Z,98.73
2023-07-29T11:47:57.270Z,98.05
2023-07-29T11:48:57.141Z,97.86
2023-07-29T11:49:57.065Z,97.47
2023-07-29T11:50:57.002Z,98.73
2023-07-29T11:51:56.927Z,97.67
2023-07-29T11:52:56.848Z,95.73
2023-07-29T11:53:56.774Z,95.15
2023-07-29T11:54:56.704Z,95.59
2023-07-29T11:55:56.627Z,95.54
2023-07-29T11:56:56.563Z,94.67
2023-07-29T11:57:56.484Z,93.71
2023-07-29T11:58:56.419Z,93.71
2023-07-29T11:59:56.333Z,93.90
2023-07-29T12:00:56.264Z,94.67
2023-07-29T12:01:56.188Z,95.45
2023-07-29T12:02:56.222Z,95.45
2023-07-29T12:03:56.075Z,94.87
2023-07-29T12:04:55.971Z,95.78
2023-07-29T12:05:55.897Z,95.78
2023-07-29T12:06:55.821Z,95.40
2023-07-29T12:07:55.752Z,95.88
2023-07-29T12:08:55.678Z,94.82
2023-07-29T12:09:55.607Z,94.91
2023-07-29T12:10:55.527Z,93.95
2023-07-29T12:11:55.468Z,93.95
2023-07-29T12:12:55.388Z,92.49
2023-07-29T12:13:55.319Z,92.40
2023-07-29T12:14:55.245Z,92.35
2023-07-29T12:15:55.167Z,94.09
2023-07-29T12:16:55.145Z,95.64
2023-07-29T12:17:55.075Z,94.96
2023-07-29T12:18:54.941Z,94.28
2023-07-29T12:19:54.879Z,92.25
2023-07-29T12:20:54.794Z,94.04
2023-07-29T12:21:54.724Z,93.36
2023-07-29T12:22:54.651Z,94.13
2023-07-29T12:23:54.590Z,93.12
2023-07-29T12:24:54.509Z,89.73
2023-07-29T12:25:54.434Z,87.99
2023-07-29T12:26:54.367Z,88.76
2023-07-29T12:27:54.457Z,88.28
2023-07-29T12:28:54.217Z,87.99
2023-07-29T12:29:54.141Z,87.31
2023-07-29T12:30:54.114Z,87.21
2023-07-29T12:31:53.996Z,88.03
2023-07-29T12:32:53.941Z,87.84
2023-07-29T12:33:53.852Z,90.06
2023-07-29T12:34:53.774Z,88.85
2023-07-29T12:35:53.723Z,89.62
2023-07-29T12:36:53.653Z,92.14
2023-07-29T12:37:53.559Z,91.75
2023-07-29T12:38:53.484Z,90.78
2023-07-29T12:39:53.422Z,86.62
2023-07-29T12:40:53.362Z,85.75
2023-07-29T12:41:53.304Z,87.01
2023-07-29T12:42:53.198Z,88.85
2023-07-29T12:43:53.123Z,89.04
2023-07-29T12:44:53.080Z,88.56
2023-07-29T12:45:52.992Z,88.17
2023-07-29T12:46:52.936Z,86.23
2023-07-29T12:47:52.922Z,86.52
2023-07-29T12:48:52.777Z,85.55
2023-07-29T12:49:52.696Z,88.07
2023-07-29T12:50:52.620Z,88.37
2023-07-29T12:51:52.554Z,87.88